createdAt,value
2022-10-23T00:02:00.475Z,100319.25
2022-10-23T00:04:30.108Z,100322.97
2022-10-23T00:06:59.284Z,100326.09
2022-10-23T00:09:28.323Z,100325.81
2022-10-23T00:11:56.371Z,100332.41
2022-10-23T00:14:26.069Z,100330.72
2022-10-23T00:16:55.105Z,100340.72
2022-10-23T00:19:23.076Z,100346.16
2022-10-23T00:21:51.352Z,100335.44
2022-10-23T00:24:21.542Z,100336.53
2022-10-23T00:26:52.475Z,100345.50
2022-10-23T00:29:22.599Z,100344.97
2022-10-23T00:31:50.968Z,100352.66
2022-10-23T00:34:20.318Z,100349.88
2022-10-23T00:36:48.993Z,100351.13
2022-10-23T00:39:17.108Z,100346.97
2022-10-23T00:41:44.856Z,100349.69
2022-10-23T00:44:18.806Z,100349.75
2022-10-23T00:46:47.524Z,100354.06
2022-10-23T00:49:17.191Z,100350.94
2022-10-23T00:51:49.929Z,100359.50
2022-10-23T00:54:25.281Z,100358.31
2022-10-23T00:57:00.048Z,100365.56
2022-10-23T00:59:28.825Z,100371.00
2022-10-23T01:01:58.227Z,100367.53
2022-10-23T01:04:27.985Z,100370.69
2022-10-23T01:07:23.484Z,100364.78
2022-10-23T01:09:56.429Z,100360.72
2022-10-23T01:12:46.014Z,100363.25
2022-10-23T01:15:51.068Z,100356.88
2022-10-23T01:18:28.148Z,100359.97
2022-10-23T01:21:06.815Z,100351.91
2022-10-23T01:23:55.888Z,100353.59
2022-10-23T01:26:30.779Z,100360.81
2022-10-23T01:29:09.422Z,100358.72
2022-10-23T01:31:45.713Z,100359.50
2022-10-23T01:34:24.084Z,100365.72
2022-10-23T01:36:53.824Z,100372.50
2022-10-23T01:39:38.013Z,100365.97
2022-10-23T01:42:17.647Z,100369.53
2022-10-23T01:45:16.122Z,100359.81
2022-10-23T01:47:45.911Z,100365.25
2022-10-23T01:50:16.298Z,100363.03
2022-10-23T01:52:45.635Z,100357.44
2022-10-23T01:55:15.402Z,100355.97
2022-10-23T01:57:46.260Z,100358.09
2022-10-23T02:00:16.767Z,100355.91
2022-10-23T02:02:45.511Z,100368.75
2022-10-23T02:05:19.286Z,100366.88
2022-10-23T02:07:47.212Z,100357.09
2022-10-23T02:10:16.466Z,100360.22
2022-10-23T02:13:08.140Z,100365.91
2022-10-23T02:15:38.021Z,100365.88
2022-10-23T02:18:28.983Z,100353.03
2022-10-23T02:21:05.782Z,100350.31
2022-10-23T02:23:35.916Z,100360.47
2022-10-23T02:26:23.138Z,100364.31
2022-10-23T02:28:54.407Z,100353.78
2022-10-23T02:31:23.826Z,100351.56
2022-10-23T02:33:52.923Z,100354.75
2022-10-23T02:36:21.600Z,100337.97
2022-10-23T02:38:49.979Z,100338.19
2022-10-23T02:41:34.228Z,100342.16
2022-10-23T02:44:21.315Z,100334.75
2022-10-23T02:47:28.519Z,100333.75
2022-10-23T02:50:02.276Z,100329.31
2022-10-23T02:52:50.673Z,100330.81
2022-10-23T02:55:33.323Z,100335.28
2022-10-23T02:58:11.476Z,100332.19
2022-10-23T03:00:43.503Z,100332.94
2022-10-23T03:03:21.770Z,100335.16
2022-10-23T03:05:50.119Z,100337.66
2022-10-23T03:08:18.271Z,100342.72
2022-10-23T03:13:18.044Z,100353.69
2022-10-23T03:15:46.186Z,100346.06
2022-10-23T03:18:16.530Z,100352.81
2022-10-23T03:20:46.114Z,100356.16
2022-10-23T03:23:17.933Z,100352.97
2022-10-23T03:25:47.257Z,100360.84
2022-10-23T03:28:18.370Z,100353.06
2022-10-23T03:30:46.477Z,100352.97
2022-10-23T03:33:15.051Z,100359.38
2022-10-23T03:35:43.103Z,100355.53
2022-10-23T03:38:12.636Z,100351.72
2022-10-23T03:40:41.204Z,100354.69
2022-10-23T03:43:10.625Z,100350.00
2022-10-23T03:45:41.102Z,100353.09
2022-10-23T03:48:09.683Z,100346.94
2022-10-23T03:50:38.120Z,100338.13
2022-10-23T03:53:07.773Z,100337.03
2022-10-23T03:55:36.709Z,100347.63
2022-10-23T03:58:04.549Z,100347.88
2022-10-23T04:00:32.806Z,100351.25
2022-10-23T04:03:07.504Z,100331.00
2022-10-23T04:05:37.113Z,100327.63
2022-10-23T04:08:06.985Z,100331.00
2022-10-23T04:10:35.869Z,100322.59
2022-10-23T04:13:04.680Z,100329.38
2022-10-23T04:15:33.956Z,100322.09
2022-10-23T04:18:04.004Z,100323.44
2022-10-23T04:20:33.923Z,100325.56
2022-10-23T04:23:04.471Z,100321.50
2022-10-23T04:25:32.739Z,100322.97
2022-10-23T04:28:02.624Z,100333.09
2022-10-23T04:30:30.820Z,100332.84
2022-10-23T04:32:59.465Z,100325.44
2022-10-23T04:35:28.066Z,100328.41
2022-10-23T04:37:56.266Z,100322.22
2022-10-23T04:40:24.699Z,100328.63
2022-10-23T04:42:52.472Z,100324.28
2022-10-23T04:45:23.953Z,100317.00
2022-10-23T04:47:54.190Z,100311.84
2022-10-23T04:50:22.749Z,100308.88
2022-10-23T04:52:55.735Z,100310.34
2022-10-23T04:55:25.690Z,100308.34
2022-10-23T04:57:54.915Z,100310.69
2022-10-23T05:00:23.519Z,100308.88
2022-10-23T05:02:52.817Z,100312.81
2022-10-23T05:05:22.568Z,100310.84
2022-10-23T05:07:51.361Z,100300.69
2022-10-23T05:10:20.553Z,100303.50
2022-10-23T05:12:48.831Z,100300.56
2022-10-23T05:15:17.384Z,100298.59
2022-10-23T05:17:49.822Z,100288.00
2022-10-23T05:20:25.948Z,100305.28
2022-10-23T05:22:56.970Z,100294.56
2022-10-23T05:25:36.680Z,100291.47
2022-10-23T05:28:07.900Z,100284.19
2022-10-23T05:30:36.591Z,100286.66
2022-10-23T05:33:05.639Z,100294.31
2022-10-23T05:35:33.822Z,100293.44
2022-10-23T05:38:03.967Z,100294.31
2022-10-23T05:40:32.124Z,100284.50
2022-10-23T05:42:59.672Z,100289.88
2022-10-23T05:45:28.235Z,100284.06
2022-10-23T05:48:05.602Z,100291.59
2022-10-23T05:50:40.103Z,100297.88
2022-10-23T05:53:08.584Z,100289.97
2022-10-23T05:55:38.721Z,100291.44
2022-10-23T05:58:07.956Z,100295.28
2022-10-23T06:01:28.588Z,100283.31
2022-10-23T06:03:59.912Z,100284.06
2022-10-23T06:06:27.968Z,100296.28
2022-10-23T06:08:55.823Z,100307.03
2022-10-23T06:11:25.226Z,100290.13
2022-10-23T06:16:26.509Z,100286.16
2022-10-23T06:18:54.722Z,100290.97
2022-10-23T06:21:22.602Z,100302.69
2022-10-23T06:23:51.390Z,100292.56
2022-10-23T06:26:22.367Z,100288.22
2022-10-23T06:28:50.575Z,100288.22
2022-10-23T06:31:20.130Z,100280.97
2022-10-23T06:33:47.942Z,100290.59
2022-10-23T06:36:15.747Z,100292.41
2022-10-23T06:38:45.279Z,100293.41
2022-10-23T06:41:19.944Z,100301.31
2022-10-23T06:43:51.932Z,100295.91
2022-10-23T06:46:20.063Z,100306.16
2022-10-23T06:48:47.584Z,100310.72
2022-10-23T06:51:18.459Z,100308.72
2022-10-23T06:53:47.069Z,100314.41
2022-10-23T06:56:18.158Z,100308.84
2022-10-23T06:58:47.475Z,100313.31
2022-10-23T07:01:17.499Z,100309.56
2022-10-23T07:03:45.793Z,100304.97
2022-10-23T07:06:14.466Z,100301.91
2022-10-23T07:08:42.191Z,100308.81
2022-10-23T07:11:11.537Z,100309.31
2022-10-23T07:13:39.932Z,100298.34
2022-10-23T07:16:21.180Z,100299.41
2022-10-23T07:18:50.824Z,100299.06
2022-10-23T07:21:18.533Z,100301.13
2022-10-23T07:23:46.491Z,100302.13
2022-10-23T07:26:16.338Z,100295.84
2022-10-23T07:28:45.247Z,100297.88
2022-10-23T07:31:13.573Z,100286.69
2022-10-23T07:33:41.533Z,100290.50
2022-10-23T07:36:09.786Z,100294.28
2022-10-23T07:38:37.501Z,100298.31
2022-10-23T07:41:08.935Z,100295.38
2022-10-23T07:43:39.332Z,100279.78
2022-10-23T07:46:09.002Z,100288.41
2022-10-23T07:48:37.646Z,100285.34
2022-10-23T07:51:13.505Z,100283.44
2022-10-23T07:53:41.195Z,100266.97
2022-10-23T07:56:32.653Z,100260.25
2022-10-23T07:59:00.242Z,100254.16
2022-10-23T08:01:38.917Z,100266.31
2022-10-23T08:04:10.524Z,100262.13
2022-10-23T08:06:38.840Z,100265.50
2022-10-23T08:09:07.175Z,100269.34
2022-10-23T08:11:38.442Z,100269.50
2022-10-23T08:14:07.648Z,100271.06
2022-10-23T08:16:39.873Z,100277.13
2022-10-23T08:19:09.407Z,100281.31
2022-10-23T08:21:38.467Z,100271.69
2022-10-23T08:24:08.521Z,100264.91
2022-10-23T08:26:36.569Z,100261.81
2022-10-23T08:29:07.963Z,100256.63
2022-10-23T08:31:35.815Z,100253.75
2022-10-23T08:34:05.813Z,100250.97
2022-10-23T08:36:34.859Z,100249.00
2022-10-23T08:39:03.464Z,100241.06
2022-10-23T08:41:41.503Z,100248.88
2022-10-23T08:44:29.929Z,100246.06
2022-10-23T08:47:24.015Z,100236.69
2022-10-23T08:49:57.075Z,100245.16
2022-10-23T08:52:53.462Z,100242.44
2022-10-23T08:55:34.307Z,100243.22
2022-10-23T08:58:21.148Z,100250.66
2022-10-23T09:00:51.444Z,100258.16
2022-10-23T09:03:19.959Z,100255.88
2022-10-23T09:06:22.861Z,100251.41
2022-10-23T09:09:18.678Z,100233.38
2022-10-23T09:12:12.129Z,100244.16
2022-10-23T09:15:05.186Z,100244.16
2022-10-23T09:17:35.949Z,100246.16
2022-10-23T09:20:16.224Z,100237.69
2022-10-23T09:22:45.882Z,100238.41
2022-10-23T09:25:20.789Z,100236.09
2022-10-23T09:27:53.293Z,100249.88
2022-10-23T09:30:35.099Z,100243.28
2022-10-23T09:33:16.080Z,100245.88
2022-10-23T09:36:00.795Z,100251.91
2022-10-23T09:38:28.085Z,100252.91
2022-10-23T09:40:57.658Z,100249.34
2022-10-23T09:43:28.378Z,100248.44
2022-10-23T09:46:06.707Z,100257.91
2022-10-23T09:48:36.172Z,100253.19
2022-10-23T09:51:18.347Z,100261.97
2022-10-23T09:54:00.717Z,100267.53
2022-10-23T09:56:36.825Z,100260.00
2022-10-23T09:59:33.610Z,100263.91
2022-10-23T10:02:07.630Z,100268.38
2022-10-23T10:04:39.405Z,100283.50
2022-10-23T10:10:19.537Z,100310.41
2022-10-23T10:13:14.267Z,100306.50
2022-10-23T10:25:23.745Z,100312.19
2022-10-23T10:28:16.170Z,100313.38
2022-10-23T10:31:29.637Z,100313.19
2022-10-23T10:34:20.935Z,100309.09
2022-10-23T10:37:14.845Z,100313.25
2022-10-23T10:40:07.061Z,100316.41
2022-10-23T10:43:00.909Z,100317.81
2022-10-23T10:45:51.929Z,100316.03
2022-10-23T10:49:23.416Z,100318.34
2022-10-23T10:52:39.395Z,100319.47
2022-10-23T10:59:23.350Z,100326.66
2022-10-23T11:02:16.257Z,100330.72
2022-10-23T11:08:44.471Z,100335.66
2022-10-23T11:11:59.528Z,100319.84
2022-10-23T11:38:31.379Z,100339.41
2022-10-23T12:05:45.551Z,100336.22
2022-10-23T12:11:53.573Z,100349.06
2022-10-23T12:41:34.146Z,100410.63
2022-10-23T12:57:00.761Z,100413.44
2022-10-23T12:59:53.500Z,100411.59
2022-10-23T21:32:33.727Z,99688.78
2022-10-23T22:10:36.666Z,99671.69
2022-10-23T22:30:03.288Z,99637.31
2022-10-23T22:37:10.712Z,99634.75
2022-10-23T23:17:39.284Z,99608.38
2022-10-23T23:38:20.333Z,99567.97
